createdAt,value
2018-01-29T00:00:54.041Z,101451.84
2018-01-29T00:06:03.548Z,101462.91
2018-01-29T00:08:31.045Z,101459.88
2018-01-29T00:10:58.605Z,101451.52
2018-01-29T00:13:26.172Z,101474.86
2018-01-29T00:15:53.650Z,101460.41
2018-01-29T00:18:21.726Z,101458.92
2018-01-29T00:20:49.244Z,101463.45
2018-01-29T00:23:18.683Z,101463.25
2018-01-29T00:25:46.216Z,101474.70
2018-01-29T00:28:13.695Z,101461.95
2018-01-29T00:30:41.227Z,101469.01
2018-01-29T00:33:08.784Z,101480.42
2018-01-29T00:35:37.238Z,101492.00
2018-01-29T00:38:05.739Z,101469.45
2018-01-29T00:40:33.234Z,101463.09
2018-01-29T00:43:00.713Z,101466.00
2018-01-29T00:45:28.224Z,101456.68
2018-01-29T00:47:55.901Z,101447.13
2018-01-29T00:50:23.446Z,101457.75
2018-01-29T00:52:51.001Z,101456.02
2018-01-29T00:55:18.544Z,101444.63
2018-01-29T00:57:46.114Z,101456.30
2018-01-29T01:00:13.578Z,101455.79
2018-01-29T01:02:41.036Z,101460.19
2018-01-29T01:05:08.523Z,101449.66
2018-01-29T01:07:36.717Z,101463.48
2018-01-29T01:10:04.438Z,101464.68
2018-01-29T01:12:32.039Z,101452.03
2018-01-29T01:14:59.603Z,101459.36
2018-01-29T01:17:27.166Z,101465.72
2018-01-29T01:19:55.080Z,101467.20
2018-01-29T01:22:22.606Z,101468.00
2018-01-29T01:24:50.173Z,101469.73
2018-01-29T01:27:17.803Z,101470.37
2018-01-29T01:29:45.451Z,101468.50
2018-01-29T01:32:12.997Z,101463.34
2018-01-29T01:34:40.547Z,101467.87
2018-01-29T01:37:08.111Z,101454.88
2018-01-29T01:39:35.603Z,101442.92
2018-01-29T01:42:03.201Z,101455.25
2018-01-29T01:44:30.673Z,101453.92
2018-01-29T01:46:58.150Z,101447.00
2018-01-29T01:49:32.188Z,101426.80
2018-01-29T01:51:59.664Z,101437.70
2018-01-29T01:54:27.143Z,101438.78
2018-01-29T01:56:54.619Z,101437.30
2018-01-29T01:59:22.118Z,101445.11
2018-01-29T02:01:49.608Z,101435.15
2018-01-29T02:04:17.152Z,101431.33
2018-01-29T02:06:44.680Z,101434.73
2018-01-29T02:09:13.093Z,101428.92
2018-01-29T02:11:41.579Z,101421.73
2018-01-29T02:14:09.082Z,101426.27
2018-01-29T02:16:36.643Z,101420.31
2018-01-29T02:19:04.110Z,101416.46
2018-01-29T02:21:31.583Z,101422.69
2018-01-29T02:23:59.058Z,101412.03
2018-01-29T02:26:26.541Z,101412.70
2018-01-29T02:28:54.012Z,101417.34
2018-01-29T02:31:21.516Z,101408.75
2018-01-29T02:33:49.002Z,101418.55
2018-01-29T02:36:16.501Z,101416.97
2018-01-29T02:38:44.065Z,101397.45
2018-01-29T02:41:11.567Z,101403.94
2018-01-29T02:43:39.045Z,101399.70
2018-01-29T02:46:06.537Z,101397.45
2018-01-29T02:48:34.387Z,101390.16
2018-01-29T02:51:01.842Z,101375.93
2018-01-29T02:53:29.954Z,101394.52
2018-01-29T02:55:57.476Z,101359.74
2018-01-29T02:58:24.931Z,101360.66
2018-01-29T03:00:52.415Z,101359.48
2018-01-29T03:03:19.878Z,101360.00
2018-01-29T03:05:47.425Z,101349.25
2018-01-29T03:08:14.968Z,101344.72
2018-01-29T03:10:42.572Z,101348.58
2018-01-29T03:13:10.063Z,101344.59
2018-01-29T03:15:37.670Z,101368.27
2018-01-29T03:18:05.151Z,101340.92
2018-01-29T03:20:32.664Z,101348.76
2018-01-29T03:23:00.112Z,101353.13
2018-01-29T03:25:27.781Z,101343.30
2018-01-29T03:27:56.175Z,101347.69
2018-01-29T03:30:24.598Z,101343.30
2018-01-29T03:32:52.083Z,101348.86
2018-01-29T03:35:19.599Z,101341.41
2018-01-29T03:37:47.079Z,101343.14
2018-01-29T03:40:14.876Z,101338.19
2018-01-29T03:42:42.429Z,101334.48
2018-01-29T03:45:09.861Z,101333.57
2018-01-29T03:47:37.326Z,101328.79
2018-01-29T03:50:04.792Z,101321.74
2018-01-29T03:52:33.197Z,101318.02
2018-01-29T03:55:01.560Z,101308.34
2018-01-29T03:57:29.068Z,101310.73
2018-01-29T03:59:57.419Z,101309.54
2018-01-29T04:02:24.866Z,101314.59
2018-01-29T04:04:52.346Z,101312.86
2018-01-29T04:07:19.840Z,101307.70
2018-01-29T04:09:47.358Z,101301.47
2018-01-29T04:12:14.886Z,101292.41
2018-01-29T04:14:42.427Z,101290.84
2018-01-29T04:17:09.979Z,101283.66
2018-01-29T04:19:37.557Z,101283.28
2018-01-29T04:22:05.139Z,101273.87
2018-01-29T04:24:32.591Z,101270.82
2018-01-29T04:27:00.096Z,101253.94
2018-01-29T04:29:27.547Z,101252.86
2018-01-29T04:31:55.037Z,101252.61
2018-01-29T04:34:41.750Z,101248.09
2018-01-29T04:37:09.674Z,101255.39
2018-01-29T04:39:37.166Z,101244.37
2018-01-29T04:42:04.628Z,101242.77
2018-01-29T04:44:32.086Z,101236.51
2018-01-29T04:47:00.413Z,101238.64
2018-01-29T04:49:27.957Z,101232.92
2018-01-29T04:51:55.424Z,101240.77
2018-01-29T04:54:22.969Z,101241.59
2018-01-29T04:56:50.428Z,101233.92
2018-01-29T04:59:17.954Z,101239.59
2018-01-29T05:01:45.463Z,101239.61
2018-01-29T05:04:12.998Z,101236.27
2018-01-29T05:06:40.484Z,101227.77
2018-01-29T05:09:08.022Z,101227.28
2018-01-29T05:11:35.598Z,101225.11
2018-01-29T05:14:03.818Z,101231.75
2018-01-29T05:16:31.303Z,101228.72
2018-01-29T05:18:58.847Z,101226.33
2018-01-29T05:21:26.319Z,101222.75
2018-01-29T05:23:53.789Z,101231.59
2018-01-29T05:26:21.266Z,101237.45
2018-01-29T05:28:48.790Z,101232.27
2018-01-29T05:31:16.226Z,101235.05
2018-01-29T05:33:43.822Z,101233.72
2018-01-29T05:36:11.347Z,101232.64
2018-01-29T05:38:38.845Z,101230.27
2018-01-29T05:41:06.316Z,101228.58
2018-01-29T05:43:33.851Z,101224.96
2018-01-29T05:46:01.404Z,101223.10
2018-01-29T05:48:28.905Z,101223.61
2018-01-29T05:50:56.422Z,101215.00
2018-01-29T05:53:23.891Z,101209.00
2018-01-29T05:55:51.438Z,101203.05
2018-01-29T05:58:18.966Z,101197.59
2018-01-29T06:00:46.462Z,101188.98
2018-01-29T06:03:14.000Z,101189.63
2018-01-29T06:05:41.610Z,101187.23
2018-01-29T06:08:09.145Z,101186.03
2018-01-29T06:10:36.774Z,101189.33
2018-01-29T06:13:04.326Z,101181.66
2018-01-29T06:15:31.785Z,101183.27
2018-01-29T06:17:59.290Z,101187.76
2018-01-29T06:20:26.805Z,101181.92
2018-01-29T06:22:54.305Z,101180.33
2018-01-29T06:25:21.768Z,101186.30
2018-01-29T06:27:49.242Z,101173.95
2018-01-29T06:30:16.975Z,101182.30
2018-01-29T06:32:44.488Z,101173.02
2018-01-29T06:35:11.988Z,101176.48
2018-01-29T06:37:40.670Z,101183.61
2018-01-29T06:40:09.047Z,101171.66
2018-01-29T06:42:36.509Z,101173.12
2018-01-29T06:45:03.982Z,101156.55
2018-01-29T06:47:32.143Z,101157.46
2018-01-29T06:49:59.671Z,101161.84
2018-01-29T06:52:27.346Z,101164.62
2018-01-29T06:54:54.829Z,101168.86
2018-01-29T06:57:22.417Z,101170.19
2018-01-29T06:59:49.908Z,101168.86
2018-01-29T07:02:18.063Z,101167.30
2018-01-29T07:04:45.599Z,101176.57
2018-01-29T07:07:13.188Z,101180.27
2018-01-29T07:09:40.725Z,101178.41
2018-01-29T07:12:08.324Z,101176.16
2018-01-29T07:14:35.840Z,101184.00
2018-01-29T07:17:03.376Z,101178.69
2018-01-29T07:19:30.974Z,101182.80
2018-01-29T07:21:58.515Z,101186.37
2018-01-29T07:24:26.666Z,101197.80
2018-01-29T07:26:54.220Z,101193.14
2018-01-29T07:29:21.779Z,101192.07
2018-01-29T07:31:49.302Z,101199.25
2018-01-29T07:34:16.947Z,101195.63
2018-01-29T07:36:44.467Z,101195.45
2018-01-29T07:39:12.048Z,101193.33
2018-01-29T07:41:39.608Z,101185.54
2018-01-29T07:44:07.111Z,101178.78
2018-01-29T07:46:34.631Z,101177.75
2018-01-29T07:49:02.159Z,101178.80
2018-01-29T07:51:29.757Z,101192.86
2018-01-29T07:53:57.286Z,101180.42
2018-01-29T07:56:24.845Z,101186.93
2018-01-29T07:58:52.419Z,101177.92
2018-01-29T08:01:20.035Z,101180.94
2018-01-29T08:03:47.519Z,101171.24
2018-01-29T08:06:17.018Z,101177.47
2018-01-29T08:08:44.625Z,101183.72
2018-01-29T08:11:12.209Z,101184.12
2018-01-29T08:13:39.806Z,101177.36
2018-01-29T08:16:07.361Z,101182.95
2018-01-29T08:18:34.993Z,101188.90
2018-01-29T08:21:02.465Z,101183.23
2018-01-29T08:23:29.974Z,101188.56
2018-01-29T08:25:57.585Z,101182.32
2018-01-29T08:28:25.137Z,101180.74
2018-01-29T08:30:52.737Z,101152.04
2018-01-29T08:33:20.241Z,101159.23
2018-01-29T08:35:47.852Z,101147.80
2018-01-29T08:38:15.488Z,101147.56
2018-01-29T08:40:43.106Z,101150.34
2018-01-29T08:43:10.721Z,101147.96
2018-01-29T08:45:43.388Z,101161.80
2018-01-29T08:48:10.943Z,101168.02
2018-01-29T08:50:38.636Z,101165.91
2018-01-29T08:53:06.361Z,101172.31
2018-01-29T08:55:34.188Z,101168.05
2018-01-29T08:58:01.760Z,101181.49
2018-01-29T09:00:29.276Z,101186.55
2018-01-29T09:02:57.028Z,101178.20
2018-01-29T09:05:24.582Z,101172.98
2018-01-29T09:07:52.128Z,101172.61
2018-01-29T09:10:19.736Z,101173.67
2018-01-29T09:12:47.374Z,101168.66
2018-01-29T09:15:14.928Z,101168.12
2018-01-29T09:17:42.567Z,101167.34
2018-01-29T09:20:10.074Z,101156.59
2018-01-29T09:22:37.681Z,101153.95
2018-01-29T09:25:10.226Z,101150.62
2018-01-29T09:27:39.887Z,101148.39
2018-01-29T09:30:07.488Z,101137.61
2018-01-29T09:32:35.726Z,101143.48
2018-01-29T09:37:56.266Z,101141.64
2018-01-29T09:40:23.884Z,101141.80
2018-01-29T09:42:51.443Z,101146.59
2018-01-29T09:45:18.965Z,101147.03
2018-01-29T09:47:46.560Z,101149.02
2018-01-29T09:50:14.066Z,101151.95
2018-01-29T09:52:41.594Z,101138.95
2018-01-29T09:58:02.117Z,101141.23
2018-01-29T10:00:29.590Z,101136.45
2018-01-29T10:02:57.216Z,101130.09
2018-01-29T10:05:24.729Z,101121.43
2018-01-29T10:07:52.251Z,101127.30
2018-01-29T10:10:19.813Z,101125.14
2018-01-29T10:12:47.288Z,101123.95
2018-01-29T10:15:14.807Z,101119.05
2018-01-29T10:17:42.316Z,101112.28
2018-01-29T10:20:09.867Z,101112.16
2018-01-29T10:22:37.415Z,101110.70
2018-01-29T10:25:05.028Z,101111.37
2018-01-29T10:27:32.580Z,101106.32
2018-01-29T10:30:00.110Z,101114.54
2018-01-29T10:32:27.618Z,101099.78
2018-01-29T10:34:55.196Z,101106.83
2018-01-29T10:37:22.660Z,101095.02
2018-01-29T10:39:50.140Z,101098.35
2018-01-29T10:42:17.674Z,101089.16
2018-01-29T10:44:45.342Z,101081.59
2018-01-29T10:47:12.816Z,101071.36
2018-01-29T10:49:40.450Z,101065.23
2018-01-29T10:52:08.090Z,101063.39
2018-01-29T10:54:35.654Z,101059.41
2018-01-29T10:57:03.200Z,101048.78
2018-01-29T10:59:30.796Z,101056.91
2018-01-29T11:02:03.742Z,101046.27
2018-01-29T11:04:31.232Z,101036.70
2018-01-29T11:06:58.758Z,101035.52
2018-01-29T11:09:26.213Z,101026.48
2018-01-29T11:11:53.806Z,101003.74
2018-01-29T11:14:21.356Z,101007.73
2018-01-29T11:16:48.919Z,101007.59
2018-01-29T11:19:16.499Z,101012.64
2018-01-29T11:21:43.991Z,101003.88
2018-01-29T11:24:11.456Z,101025.94
2018-01-29T11:26:39.091Z,101005.87
2018-01-29T11:29:06.739Z,100994.31
2018-01-29T11:31:34.309Z,101004.13
2018-01-29T11:34:01.878Z,101006.00
2018-01-29T11:36:29.436Z,100990.22
2018-01-29T11:38:57.142Z,100992.34
2018-01-29T11:41:24.714Z,100999.80
2018-01-29T11:43:52.288Z,100996.87
2018-01-29T11:46:19.982Z,101006.31
2018-01-29T11:48:47.590Z,100992.61
2018-01-29T11:51:15.096Z,100982.76
2018-01-29T11:53:42.656Z,100982.76
2018-01-29T11:56:10.236Z,100981.84
2018-01-29T11:58:37.764Z,100971.88
2018-01-29T12:01:05.582Z,100956.70
2018-01-29T12:03:33.181Z,100951.11
2018-01-29T12:06:00.659Z,100961.09
2018-01-29T12:08:28.196Z,100945.28
2018-01-29T12:10:55.821Z,100944.32
2018-01-29T12:13:24.246Z,100933.03
2018-01-29T12:15:51.795Z,100917.57
2018-01-29T12:18:19.456Z,100938.20
2018-01-29T12:20:47.099Z,100910.39
2018-01-29T12:23:14.592Z,100907.96
2018-01-29T12:25:42.102Z,100906.91
2018-01-29T12:28:09.676Z,100912.36
2018-01-29T12:30:37.160Z,100904.92
2018-01-29T12:33:04.764Z,100897.98
2018-01-29T12:35:32.227Z,100883.21
2018-01-29T12:37:59.722Z,100881.48
2018-01-29T12:40:27.183Z,100865.78
2018-01-29T12:42:54.913Z,100870.19
2018-01-29T12:45:22.470Z,100870.17
2018-01-29T12:47:50.088Z,100864.03
2018-01-29T12:50:17.565Z,100859.78
2018-01-29T12:52:45.058Z,100850.98
2018-01-29T12:55:12.545Z,100848.19
2018-01-29T12:57:40.060Z,100839.29
2018-01-29T13:00:08.399Z,100836.77
2018-01-29T13:02:35.978Z,100854.58
2018-01-29T13:05:03.962Z,100843.28
2018-01-29T13:07:31.633Z,100849.53
2018-01-29T13:10:00.094Z,100844.48
2018-01-29T13:12:27.637Z,100843.94
2018-01-29T13:14:55.172Z,100836.23
2018-01-29T13:17:22.726Z,100829.72
2018-01-29T13:19:50.258Z,100847.84
2018-01-29T13:22:17.844Z,100820.95
2018-01-29T13:24:45.448Z,100820.03
2018-01-29T13:27:13.034Z,100812.00
2018-01-29T13:29:40.718Z,100808.02
2018-01-29T13:32:08.610Z,100818.94
2018-01-29T13:34:55.653Z,100807.10
2018-01-29T13:37:23.583Z,100809.48
2018-01-29T13:39:51.178Z,100813.63
2018-01-29T13:42:18.732Z,100813.48
2018-01-29T13:44:46.251Z,100795.55
2018-01-29T13:47:13.955Z,100797.28
2018-01-29T13:49:41.530Z,100811.51
2018-01-29T13:52:09.046Z,100791.69
2018-01-29T13:54:36.572Z,100790.52
2018-01-29T13:57:04.099Z,100794.50
2018-01-29T13:59:31.561Z,100808.98
2018-01-29T14:01:59.420Z,100783.56
2018-01-29T14:04:26.922Z,100781.85
2018-01-29T14:06:55.355Z,100784.00
2018-01-29T14:09:22.899Z,100779.59
2018-01-29T14:11:50.395Z,100783.58
2018-01-29T14:14:18.883Z,100780.13
2018-01-29T14:16:46.423Z,100774.55
2018-01-29T14:19:14.006Z,100780.02
2018-01-29T14:21:41.752Z,100763.09
2018-01-29T14:24:09.299Z,100773.59
2018-01-29T14:26:36.798Z,100779.87
2018-01-29T14:29:04.429Z,100772.80
2018-01-29T14:31:31.992Z,100768.94
2018-01-29T14:33:59.565Z,100760.42
2018-01-29T14:36:27.937Z,100761.38
2018-01-29T14:38:55.500Z,100759.63
2018-01-29T14:41:23.019Z,100754.44
2018-01-29T14:43:50.603Z,100754.58
2018-01-29T14:46:18.179Z,100739.81
2018-01-29T14:48:46.431Z,100747.80
2018-01-29T14:51:13.958Z,100749.39
2018-01-29T14:53:41.493Z,100745.55
2018-01-29T14:56:09.309Z,100749.27
2018-01-29T14:58:36.911Z,100749.91
2018-01-29T15:01:04.458Z,100741.67
2018-01-29T15:03:31.938Z,100742.61
2018-01-29T15:05:59.492Z,100734.78
2018-01-29T15:08:27.116Z,100735.58
2018-01-29T15:10:57.523Z,100731.59
2018-01-29T15:13:25.217Z,100747.14
2018-01-29T15:15:52.720Z,100728.13
2018-01-29T15:18:20.217Z,100730.47
2018-01-29T15:20:48.687Z,100728.73
2018-01-29T15:23:16.191Z,100722.66
2018-01-29T15:25:43.671Z,100718.68
2018-01-29T15:28:11.217Z,100719.34
2018-01-29T15:30:38.698Z,100718.55
2018-01-29T15:33:06.215Z,100695.27
2018-01-29T15:35:34.231Z,100707.94
2018-01-29T15:38:01.762Z,100689.98
2018-01-29T15:40:29.259Z,100694.38
2018-01-29T15:42:56.742Z,100682.53
2018-01-29T15:45:24.328Z,100690.25
2018-01-29T15:47:51.802Z,100691.70
2018-01-29T15:50:19.284Z,100688.13
2018-01-29T15:52:46.828Z,100692.41
2018-01-29T15:55:14.452Z,100692.42
2018-01-29T15:57:41.913Z,100686.55
2018-01-29T16:00:10.406Z,100689.48
2018-01-29T16:02:37.967Z,100697.06
2018-01-29T16:05:05.451Z,100680.30
2018-01-29T16:07:32.972Z,100689.89
2018-01-29T16:10:00.479Z,100687.11
2018-01-29T16:12:27.991Z,100686.17
2018-01-29T16:14:55.477Z,100690.58
2018-01-29T16:17:22.981Z,100687.91
2018-01-29T16:19:51.254Z,100678.47
2018-01-29T16:22:18.774Z,100674.75
2018-01-29T16:24:46.304Z,100660.77
2018-01-29T16:27:13.769Z,100662.00
2018-01-29T16:29:41.388Z,100665.85
2018-01-29T16:32:08.887Z,100659.84
2018-01-29T16:34:36.482Z,100651.20
2018-01-29T16:37:03.947Z,100663.33
2018-01-29T16:39:31.500Z,100649.61
2018-01-29T16:41:59.086Z,100647.25
2018-01-29T16:44:26.620Z,100646.15
2018-01-29T16:46:54.213Z,100651.11
2018-01-29T16:49:21.894Z,100645.66
2018-01-29T16:51:49.575Z,100636.21
2018-01-29T16:54:17.144Z,100627.69
2018-01-29T16:56:44.683Z,100635.42
2018-01-29T16:59:12.159Z,100633.01
2018-01-29T17:01:39.694Z,100626.51
2018-01-29T17:04:07.188Z,100635.67
2018-01-29T17:06:34.714Z,100630.78
2018-01-29T17:09:02.247Z,100624.67
2018-01-29T17:11:29.749Z,100623.06
2018-01-29T17:13:57.370Z,100626.27
2018-01-29T17:16:24.931Z,100618.17
2018-01-29T17:18:52.466Z,100618.14
2018-01-29T17:21:19.985Z,100617.31
2018-01-29T17:23:47.450Z,100612.84
2018-01-29T17:26:14.957Z,100608.44
2018-01-29T17:28:42.456Z,100607.25
2018-01-29T17:31:09.961Z,100610.56
2018-01-29T17:33:38.160Z,100598.34
2018-01-29T17:36:05.747Z,100585.14
2018-01-29T17:38:34.163Z,100600.07
2018-01-29T17:41:01.678Z,100595.14
2018-01-29T17:43:29.284Z,100588.11
2018-01-29T17:45:56.779Z,100591.72
2018-01-29T17:48:25.427Z,100580.67
2018-01-29T17:50:52.982Z,100579.34
2018-01-29T17:53:20.538Z,100570.94
2018-01-29T17:55:48.019Z,100565.22
2018-01-29T17:58:15.557Z,100568.00
2018-01-29T18:00:43.084Z,100565.13
2018-01-29T18:05:52.564Z,100563.23
2018-01-29T18:08:20.131Z,100553.55
2018-01-29T18:10:47.685Z,100551.92
2018-01-29T18:13:15.322Z,100559.66
2018-01-29T18:15:42.959Z,100543.03
2018-01-29T18:18:10.479Z,100534.16
2018-01-29T18:20:38.907Z,100538.28
2018-01-29T18:23:06.754Z,100542.28
2018-01-29T18:25:34.364Z,100528.56
2018-01-29T18:28:01.922Z,100535.08
2018-01-29T18:30:29.644Z,100538.44
2018-01-29T18:32:57.228Z,100540.28
2018-01-29T18:35:25.012Z,100534.31
2018-01-29T18:37:52.562Z,100537.11
2018-01-29T18:40:21.190Z,100533.91
2018-01-29T18:42:48.717Z,100535.50
2018-01-29T18:45:16.377Z,100537.50
2018-01-29T18:47:43.930Z,100534.60
2018-01-29T18:50:11.439Z,100532.46
2018-01-29T18:52:38.924Z,100542.02
2018-01-29T18:55:06.474Z,100540.69
2018-01-29T18:57:34.021Z,100542.28
2018-01-29T19:00:01.636Z,100537.25
2018-01-29T19:02:29.978Z,100526.98
2018-01-29T19:04:57.436Z,100522.08
2018-01-29T19:07:25.154Z,100529.77
2018-01-29T19:09:52.711Z,100533.35
2018-01-29T19:12:20.308Z,100535.37
2018-01-29T19:14:47.795Z,100525.64
2018-01-29T19:17:15.339Z,100523.25
2018-01-29T19:19:43.994Z,100520.17
2018-01-29T19:22:11.508Z,100516.04
2018-01-29T19:24:38.994Z,100537.33
2018-01-29T19:27:08.462Z,100507.16
2018-01-29T19:29:35.934Z,100534.17
2018-01-29T19:32:03.546Z,100526.71
2018-01-29T19:34:31.179Z,100528.58
2018-01-29T19:36:58.777Z,100523.69
2018-01-29T19:39:26.337Z,100546.16
2018-01-29T19:41:53.886Z,100546.16
2018-01-29T19:44:21.459Z,100559.88
2018-01-29T19:46:48.972Z,100535.42
2018-01-29T19:49:16.725Z,100539.41
2018-01-29T19:51:44.280Z,100535.43
2018-01-29T19:54:11.796Z,100538.23
2018-01-29T19:56:40.155Z,100540.77
2018-01-29T19:59:07.635Z,100542.24
2018-01-29T20:01:35.339Z,100539.71
2018-01-29T20:04:02.916Z,100527.64
2018-01-29T20:06:30.491Z,100553.03
2018-01-29T20:08:57.997Z,100530.03
2018-01-29T20:11:25.538Z,100533.52
2018-01-29T20:13:53.091Z,100530.19
2018-01-29T20:16:20.640Z,100529.27
2018-01-29T20:18:48.131Z,100528.73
2018-01-29T20:21:15.682Z,100533.41
2018-01-29T20:23:43.299Z,100544.18
2018-01-29T20:26:10.824Z,100534.61
2018-01-29T20:28:38.374Z,100536.99
2018-01-29T20:31:05.878Z,100530.48
2018-01-29T20:33:33.422Z,100538.33
2018-01-29T20:36:00.987Z,100546.98
2018-01-29T20:38:28.519Z,100559.60
2018-01-29T20:40:56.211Z,100551.90
2018-01-29T20:43:23.733Z,100536.75
2018-01-29T20:45:51.272Z,100543.53
2018-01-29T20:48:19.495Z,100547.64
2018-01-29T20:50:46.960Z,100542.59
2018-01-29T20:53:14.470Z,100542.32
2018-01-29T20:55:41.928Z,100533.16
2018-01-29T20:58:09.458Z,100552.69
2018-01-29T21:00:36.995Z,100550.02
2018-01-29T21:03:04.457Z,100547.09
2018-01-29T21:05:31.980Z,100549.64
2018-01-29T21:07:59.513Z,100551.22
2018-01-29T21:10:27.107Z,100565.59
2018-01-29T21:12:54.633Z,100558.95
2018-01-29T21:15:22.304Z,100558.42
2018-01-29T21:17:49.795Z,100551.78
2018-01-29T21:20:17.263Z,100556.33
2018-01-29T21:22:44.788Z,100549.91
2018-01-29T21:25:12.305Z,100544.08
2018-01-29T21:27:39.800Z,100554.72
2018-01-29T21:30:07.316Z,100559.08
2018-01-29T21:32:35.026Z,100580.25
2018-01-29T21:35:16.882Z,100566.97
2018-01-29T21:37:44.498Z,100572.81
2018-01-29T21:40:12.466Z,100563.66
2018-01-29T21:42:39.931Z,100569.54
2018-01-29T21:45:07.436Z,100594.10
2018-01-29T21:47:34.994Z,100598.36
2018-01-29T21:50:02.524Z,100616.05
2018-01-29T21:52:30.532Z,100632.64
2018-01-29T21:54:58.243Z,100647.52
2018-01-29T21:57:25.914Z,100695.05
2018-01-29T21:59:53.440Z,100706.20
2018-01-29T22:02:21.009Z,100698.78
2018-01-29T22:04:48.534Z,100711.49
2018-01-29T22:07:16.199Z,100724.61
2018-01-29T22:09:43.744Z,100717.03
2018-01-29T22:12:11.303Z,100738.92
2018-01-29T22:14:38.838Z,100748.15
2018-01-29T22:17:06.389Z,100740.53
2018-01-29T22:19:33.955Z,100743.44
2018-01-29T22:22:02.215Z,100757.99
2018-01-29T22:24:29.752Z,100771.36
2018-01-29T22:26:57.274Z,100781.00
2018-01-29T22:29:24.994Z,100776.61
2018-01-29T22:31:52.593Z,100787.60
2018-01-29T22:34:20.075Z,100801.25
2018-01-29T22:36:47.555Z,100809.97
2018-01-29T22:39:15.128Z,100817.78
2018-01-29T22:41:42.750Z,100813.92
2018-01-29T22:44:10.259Z,100825.30
2018-01-29T22:46:37.761Z,100835.36
2018-01-29T22:49:05.268Z,100849.25
2018-01-29T22:51:32.747Z,100848.84
2018-01-29T22:54:00.253Z,100865.22
2018-01-29T22:56:32.738Z,100873.28
2018-01-29T22:59:00.249Z,100866.38
2018-01-29T23:01:27.830Z,100870.70
2018-01-29T23:03:55.290Z,100873.05
2018-01-29T23:06:22.934Z,100885.23
2018-01-29T23:08:50.541Z,100899.80
2018-01-29T23:11:18.028Z,100903.47
2018-01-29T23:13:45.626Z,100915.50
2018-01-29T23:16:13.106Z,100920.39
2018-01-29T23:18:40.651Z,100931.59
2018-01-29T23:21:09.378Z,100927.42
2018-01-29T23:23:37.116Z,100935.31
2018-01-29T23:26:09.587Z,100941.87
2018-01-29T23:28:37.159Z,100944.49
2018-01-29T23:31:04.707Z,100950.33
2018-01-29T23:33:32.205Z,100947.11
2018-01-29T23:35:59.694Z,100956.13
2018-01-29T23:38:27.312Z,100954.63
2018-01-29T23:40:54.793Z,100964.36
2018-01-29T23:43:22.454Z,100960.62
2018-01-29T23:45:49.935Z,100963.61
2018-01-29T23:48:17.432Z,100966.77
2018-01-29T23:50:44.924Z,100970.80
2018-01-29T23:53:12.459Z,100976.09
2018-01-29T23:55:39.936Z,100975.97
2018-01-29T23:58:07.390Z,100996.41
